Time;durP1;ratioP1;P1;durP2;ratioP2;P2;SDS_P1;SDS_P2;PMS_P1;PMS_P2;Temp;Humidity;BMP_temperature;BMP_pressure;BME280_temperature;BME280_humidity;BME280_pressure;Samples;Min_cycle;Max_cycle;Signal;HPM_P1;HPM_P2
2024/01/15 03:52:59;;;;;;;16.90;15.50;;;4.20;16.40;;;;;;5736110;23;20510;-77
2024/01/15 03:55:25;;;;;;;14.20;13.00;;;4.30;16.40;;;;;;4918847;29;20944;-79
2024/01/15 03:57:51;;;;;;;15.30;13.90;;;4.30;16.50;;;;;;4919172;29;20177;-79
2024/01/15 04:00:17;;;;;;;16.20;14.57;;;4.30;16.10;;;;;;4919331;29;20559;-78
2024/01/15 04:02:44;;;;;;;15.03;13.73;;;4.00;16.90;;;;;;4901713;29;20574;-79
2024/01/15 04:05:09;;;;;;;15.83;14.43;;;4.00;16.80;;;;;;4918398;29;20502;-79
2024/01/15 04:07:35;;;;;;;13.80;12.77;;;4.20;16.80;;;;;;4926002;29;20535;-80
2024/01/15 04:10:00;;;;;;;14.50;13.40;;;4.20;16.60;;;;;;4920344;29;20208;-79
2024/01/15 04:12:26;;;;;;;15.80;14.30;;;4.20;16.50;;;;;;4926411;29;20215;-80
2024/01/15 04:14:51;;;;;;;14.47;13.27;;;4.30;16.70;;;;;;4911493;29;20189;-79
2024/01/15 04:17:17;;;;;;;15.27;14.10;;;4.30;16.20;;;;;;4920586;29;20645;-79
2024/01/15 04:19:47;;;;;;;13.63;12.63;;;4.20;16.60;;;;;;4921876;29;20247;-79
2024/01/15 04:22:13;;;;;;;14.67;13.63;;;3.60;18.30;;;;;;4912097;29;20535;-79
2024/01/15 04:24:39;;;;;;;14.03;12.83;;;3.50;18.10;;;;;;4920404;29;20463;-80
2024/01/15 04:27:04;;;;;;;14.53;13.33;;;3.40;18.50;;;;;;4938824;29;20245;-80
2024/01/15 04:29:30;;;;;;;15.53;14.40;;;3.20;19.60;;;;;;4933074;29;20196;-80
2024/01/15 04:31:55;;;;;;;14.40;13.30;;;3.10;19.60;;;;;;4941954;29;20260;-80
2024/01/15 04:34:21;;;;;;;13.67;12.57;;;3.10;19.60;;;;;;4941014;29;20187;-79
2024/01/15 04:36:46;;;;;;;14.20;13.10;;;2.80;19.90;;;;;;4940495;29;20217;-79
2024/01/15 04:39:12;;;;;;;15.30;14.10;;;2.70;20.10;;;;;;4939230;29;20213;-79
2024/01/15 04:41:37;;;;;;;15.63;14.33;;;2.70;20.60;;;;;;4941757;29;20240;-79
2024/01/15 04:44:03;;;;;;;15.63;14.43;;;2.70;20.80;;;;;;4939752;29;20212;-78
2024/01/15 04:46:29;;;;;;;16.50;15.00;;;2.60;20.70;;;;;;4947272;29;20173;-79
2024/01/15 04:48:54;;;;;;;15.20;13.97;;;2.50;21.40;;;;;;4931222;29;20273;-79
2024/01/15 04:51:22;;;;;;;16.80;15.50;;;2.50;21.80;;;;;;4940209;29;20208;-79
2024/01/15 04:53:47;;;;;;;16.57;14.97;;;2.30;22.20;;;;;;4935834;29;20193;-79
2024/01/15 04:56:13;;;;;;;16.80;15.37;;;2.20;21.80;;;;;;4928387;29;20516;-78
2024/01/15 04:58:38;;;;;;;14.40;13.20;;;2.20;22.30;;;;;;4923039;29;20295;-79
2024/01/15 05:01:04;;;;;;;14.57;13.37;;;2.00;22.50;;;;;;4923194;29;20231;-78
2024/01/15 05:03:29;;;;;;;17.40;16.00;;;2.10;23.00;;;;;;4909717;29;20185;-78
2024/01/15 05:05:55;;;;;;;16.57;15.27;;;2.00;23.00;;;;;;4926974;29;20572;-79
2024/01/15 05:08:21;;;;;;;18.40;16.90;;;2.00;23.30;;;;;;4915919;29;20209;-79
2024/01/15 05:10:47;;;;;;;16.87;15.50;;;2.00;23.60;;;;;;4919704;29;20192;-79
2024/01/15 05:13:12;;;;;;;17.63;16.13;;;2.10;23.30;;;;;;4919242;29;20181;-79
2024/01/15 05:15:38;;;;;;;17.57;15.97;;;2.10;23.20;;;;;;4919674;29;20815;-79
2024/01/15 05:18:04;;;;;;;17.27;15.90;;;2.10;23.30;;;;;;4919575;29;20640;-79
2024/01/15 05:20:29;;;;;;;16.77;15.40;;;2.10;23.50;;;;;;4909861;29;20239;-79
2024/01/15 05:22:55;;;;;;;15.50;14.30;;;2.20;23.10;;;;;;4918843;29;20206;-79
2024/01/15 05:25:20;;;;;;;16.90;15.50;;;2.10;23.40;;;;;;4910231;29;20188;-79
2024/01/15 05:27:46;;;;;;;17.80;16.30;;;2.20;23.30;;;;;;4926465;29;20189;-79
2024/01/15 05:30:12;;;;;;;15.40;14.20;;;2.10;23.20;;;;;;4926332;29;20181;-77
2024/01/15 05:32:37;;;;;;;17.70;16.20;;;2.10;23.70;;;;;;4910226;29;20240;-79
2024/01/15 05:35:03;;;;;;;18.93;17.30;;;2.00;23.80;;;;;;4921239;29;20433;-79
2024/01/15 05:37:28;;;;;;;16.90;15.50;;;2.10;23.70;;;;;;4928934;29;20184;-79
2024/01/15 05:39:54;;;;;;;15.50;14.33;;;1.90;23.60;;;;;;4926153;29;20208;-79
2024/01/15 05:42:19;;;;;;;14.73;13.63;;;1.80;24.10;;;;;;4911456;29;20211;-77
2024/01/15 05:44:45;;;;;;;16.40;14.83;;;1.90;24.50;;;;;;4921078;29;20176;-78
2024/01/15 05:47:10;;;;;;;16.00;14.87;;;1.80;24.00;;;;;;4911596;29;20609;-78
2024/01/15 05:49:36;;;;;;;15.80;14.63;;;1.90;24.50;;;;;;4919384;29;20239;-78
2024/01/15 05:52:01;;;;;;;15.53;14.33;;;1.90;23.90;;;;;;4919486;29;20184;-78
2024/01/15 05:54:27;;;;;;;15.23;14.13;;;1.90;24.20;;;;;;4917936;29;20200;-78
2024/01/15 05:56:52;;;;;;;16.07;14.97;;;1.90;24.00;;;;;;4926056;29;20272;-78
2024/01/15 05:59:18;;;;;;;16.90;15.50;;;1.90;23.70;;;;;;4909928;29;20201;-78
2024/01/15 06:01:44;;;;;;;17.10;15.83;;;2.00;23.80;;;;;;4918663;29;20207;-78
2024/01/15 06:04:09;;;;;;;16.20;14.90;;;2.10;24.10;;;;;;4908876;29;20204;-79
2024/01/15 06:06:35;;;;;;;16.53;15.33;;;2.10;23.40;;;;;;4918783;29;20188;-79
2024/01/15 06:09:05;;;;;;;16.80;15.40;;;2.20;23.20;;;;;;4918492;29;20197;-79
2024/01/15 06:11:33;;;;;;;16.57;15.07;;;2.50;22.70;;;;;;4909596;29;20189;-77
2024/01/15 06:14:00;;;;;;;17.33;15.93;;;2.40;22.80;;;;;;4908864;29;20476;-78
2024/01/15 06:16:26;;;;;;;15.90;14.70;;;2.30;22.60;;;;;;4927307;29;20441;-78
2024/01/15 06:18:51;;;;;;;17.47;15.97;;;2.20;22.90;;;;;;4908829;29;20460;-78
2024/01/15 06:21:17;;;;;;;17.60;16.20;;;2.20;23.20;;;;;;4917273;29;21072;-80
2024/01/15 06:23:43;;;;;;;17.37;16.00;;;2.10;23.10;;;;;;4917736;29;20193;-78
2024/01/15 06:26:08;;;;;;;16.67;15.23;;;2.20;23.40;;;;;;4909571;29;20184;-78
2024/01/15 06:28:34;;;;;;;16.70;15.30;;;2.30;22.60;;;;;;4901728;29;20219;-78
2024/01/15 06:30:59;;;;;;;15.97;14.87;;;2.20;22.90;;;;;;4912376;29;20201;-77
2024/01/15 06:33:25;;;;;;;18.17;16.80;;;2.00;23.50;;;;;;4922535;29;20219;-80
2024/01/15 06:35:50;;;;;;;18.70;16.83;;;2.10;23.50;;;;;;4921720;29;20188;-78
2024/01/15 06:38:16;;;;;;;16.43;15.13;;;2.20;23.60;;;;;;4907121;29;20655;-80
2024/01/15 06:40:45;;;;;;;18.50;17.00;;;2.20;23.10;;;;;;4923551;29;20219;-80
2024/01/15 06:43:15;;;;;;;16.83;15.47;;;2.10;23.40;;;;;;4928863;29;20196;-80
2024/01/15 06:45:51;;;;;;;19.53;16.17;;;2.20;23.30;;;;;;4917027;29;20851;-81
2024/01/15 06:48:17;;;;;;;15.23;14.13;;;2.20;23.60;;;;;;4916530;29;20991;-80
2024/01/15 06:50:43;;;;;;;15.97;14.67;;;2.20;23.60;;;;;;4920177;29;20421;-78
2024/01/15 06:53:08;;;;;;;17.03;15.70;;;2.10;23.40;;;;;;4918053;29;20271;-78
2024/01/15 06:55:34;;;;;;;16.83;15.60;;;2.00;24.10;;;;;;4919299;29;20468;-77
2024/01/15 06:58:01;;;;;;;16.13;14.97;;;2.00;23.90;;;;;;4916957;29;20598;-77
2024/01/15 07:00:27;;;;;;;17.20;15.90;;;2.00;23.50;;;;;;4900577;29;20491;-79
2024/01/15 07:02:53;;;;;;;18.30;16.70;;;2.00;23.80;;;;;;4917081;29;20428;-79
2024/01/15 07:05:20;;;;;;;17.27;15.97;;;1.90;24.00;;;;;;4917609;29;20192;-77
2024/01/15 07:07:45;;;;;;;16.57;15.27;;;2.00;24.10;;;;;;4899373;29;20271;-77
2024/01/15 07:10:11;;;;;;;17.03;15.63;;;2.00;23.40;;;;;;4916209;29;20544;-77
2024/01/15 07:12:36;;;;;;;16.53;15.10;;;2.00;23.30;;;;;;4903267;29;20239;-77
2024/01/15 07:15:03;;;;;;;15.40;14.30;;;1.90;23.60;;;;;;4919847;29;20177;-77
2024/01/15 07:17:29;;;;;;;15.17;13.77;;;1.90;23.20;;;;;;4920377;29;20524;-76
2024/01/15 07:19:55;;;;;;;14.77;13.77;;;2.00;23.30;;;;;;4903122;29;20459;-78
2024/01/15 07:22:20;;;;;;;17.77;16.33;;;2.00;23.10;;;;;;4902821;29;20448;-77
2024/01/15 07:24:46;;;;;;;14.47;13.47;;;2.00;23.00;;;;;;4918297;29;20243;-77
2024/01/15 07:27:12;;;;;;;13.90;13.00;;;2.10;22.90;;;;;;4918044;29;20173;-77
2024/01/15 07:29:37;;;;;;;14.77;13.47;;;2.20;22.80;;;;;;4901683;29;20259;-78
2024/01/15 07:32:04;;;;;;;14.17;13.07;;;2.30;22.10;;;;;;4900931;29;20208;-78
2024/01/15 07:34:29;;;;;;;15.80;14.40;;;2.30;21.90;;;;;;4918175;29;20185;-77
2024/01/15 07:36:55;;;;;;;15.10;13.73;;;2.20;21.90;;;;;;4904334;29;20503;-77
